Time;durP1;ratioP1;P1;durP2;ratioP2;P2;SDS_P1;SDS_P2;PMS_P1;PMS_P2;Temp;Humidity;BMP_temperature;BMP_pressure;BME280_temperature;BME280_humidity;BME280_pressure;Samples;Min_cycle;Max_cycle;Signal;HPM_P1;HPM_P2
2021/06/11 00:02:08;;;;;;;3.28;2.97;;;;;;;;;;5010571;28;20116;-51
2021/06/11 00:04:35;;;;;;;3.53;3.33;;;;;;;;;;5008192;28;20034;-52
2021/06/11 00:07:02;;;;;;;3.50;2.97;;;;;;;;;;5009658;28;20498;-53
2021/06/11 00:09:29;;;;;;;3.35;3.15;;;;;;;;;;5008825;28;20077;-51
2021/06/11 00:11:56;;;;;;;3.03;2.92;;;;;;;;;;5007794;28;20038;-54
2021/06/11 00:14:22;;;;;;;3.75;3.63;;;;;;;;;;5012206;28;20387;-53
2021/06/11 00:16:49;;;;;;;2.85;2.65;;;;;;;;;;5010128;28;20029;-54
2021/06/11 00:19:16;;;;;;;2.85;2.75;;;;;;;;;;5010257;28;20038;-53
2021/06/11 00:21:43;;;;;;;3.42;3.35;;;;;;;;;;5010549;28;20108;-53
2021/06/11 00:24:09;;;;;;;4.07;3.97;;;;;;;;;;5008922;28;20037;-53
2021/06/11 00:26:36;;;;;;;3.97;3.83;;;;;;;;;;5011495;28;20048;-53
2021/06/11 00:29:03;;;;;;;3.03;2.92;;;;;;;;;;5010813;28;20120;-52
2021/06/11 00:31:30;;;;;;;3.42;3.33;;;;;;;;;;5010442;28;20104;-52
2021/06/11 00:33:57;;;;;;;4.43;4.22;;;;;;;;;;5011399;28;20049;-53
2021/06/11 00:36:23;;;;;;;4.32;4.22;;;;;;;;;;5009328;28;20050;-53
2021/06/11 00:38:50;;;;;;;4.07;3.92;;;;;;;;;;5012046;28;20084;-51
2021/06/11 00:41:17;;;;;;;3.85;3.75;;;;;;;;;;5009371;28;20099;-54
2021/06/11 00:43:44;;;;;;;3.75;3.58;;;;;;;;;;5009031;28;20049;-53
2021/06/11 00:46:12;;;;;;;3.83;3.53;;;;;;;;;;5010692;28;20049;-53
2021/06/11 00:48:39;;;;;;;3.65;3.35;;;;;;;;;;5009553;28;20092;-53
2021/06/11 00:51:05;;;;;;;3.97;3.75;;;;;;;;;;5010949;28;20500;-54
2021/06/11 00:53:32;;;;;;;3.10;3.00;;;;;;;;;;5008758;28;20046;-52
2021/06/11 00:55:59;;;;;;;3.95;3.60;;;;;;;;;;5009454;28;20038;-53
2021/06/11 00:58:26;;;;;;;4.13;3.92;;;;;;;;;;5016873;28;20503;-52
2021/06/11 01:00:52;;;;;;;5.07;4.55;;;;;;;;;;5011608;28;20038;-54
2021/06/11 01:03:19;;;;;;;3.00;3.00;;;;;;;;;;5011989;28;20042;-54
2021/06/11 01:05:46;;;;;;;3.85;3.60;;;;;;;;;;5009548;28;20038;-51
2021/06/11 01:08:14;;;;;;;4.05;3.92;;;;;;;;;;5008147;28;20044;-53
2021/06/11 01:10:42;;;;;;;3.75;3.65;;;;;;;;;;5010637;28;20038;-53
2021/06/11 01:13:09;;;;;;;4.43;4.15;;;;;;;;;;5008483;28;20120;-54
2021/06/11 01:15:36;;;;;;;3.97;3.35;;;;;;;;;;5009946;28;20356;-53
2021/06/11 01:18:03;;;;;;;4.32;4.22;;;;;;;;;;5008107;28;20099;-52
2021/06/11 01:20:30;;;;;;;4.57;4.43;;;;;;;;;;5007865;28;20050;-53
2021/06/11 01:22:57;;;;;;;3.60;3.50;;;;;;;;;;5011013;28;20042;-54
2021/06/11 01:25:24;;;;;;;3.80;3.50;;;;;;;;;;5009404;28;20068;-51
2021/06/11 01:27:50;;;;;;;3.47;3.38;;;;;;;;;;5009604;28;20088;-53
2021/06/11 01:30:20;;;;;;;3.83;3.30;;;;;;;;;;5008809;28;20556;-52
2021/06/11 01:32:47;;;;;;;3.83;3.50;;;;;;;;;;5008729;28;20375;-53
2021/06/11 01:35:20;;;;;;;3.70;3.50;;;;;;;;;;5009294;28;20065;-53
2021/06/11 01:37:48;;;;;;;4.05;3.85;;;;;;;;;;5008718;28;20038;-53
2021/06/11 01:40:17;;;;;;;4.80;3.88;;;;;;;;;;5009810;28;20500;-54
2021/06/11 01:42:46;;;;;;;4.32;3.05;;;;;;;;;;5008586;28;20049;-52
2021/06/11 01:45:13;;;;;;;4.20;3.33;;;;;;;;;;5008357;28;20042;-52
2021/06/11 01:47:48;;;;;;;4.63;4.30;;;;;;;;;;5011416;28;20457;-53
2021/06/11 01:50:22;;;;;;;4.63;4.32;;;;;;;;;;5008980;28;20038;-51
2021/06/11 01:52:49;;;;;;;3.80;3.53;;;;;;;;;;5009739;28;20422;-51
2021/06/11 01:55:16;;;;;;;5.65;4.38;;;;;;;;;;5010136;28;20045;-54
2021/06/11 01:57:43;;;;;;;8.18;4.95;;;;;;;;;;5006392;28;20036;-52
2021/06/11 02:00:11;;;;;;;6.13;5.63;;;;;;;;;;5010815;28;20080;-52
2021/06/11 02:02:38;;;;;;;5.85;5.55;;;;;;;;;;5007850;28;20038;-53
2021/06/11 02:05:06;;;;;;;5.65;5.50;;;;;;;;;;5009289;28;20052;-54
2021/06/11 02:07:35;;;;;;;19.50;5.85;;;;;;;;;;5010454;28;20058;-52
2021/06/11 02:10:03;;;;;;;4.93;4.70;;;;;;;;;;5008651;28;20042;-55
2021/06/11 02:12:30;;;;;;;4.03;3.92;;;;;;;;;;5007962;28;20036;-52
2021/06/11 02:14:58;;;;;;;5.03;4.93;;;;;;;;;;5009379;28;20116;-53
2021/06/11 02:17:24;;;;;;;4.90;4.57;;;;;;;;;;4996116;28;20045;-53
2021/06/11 02:19:51;;;;;;;7.20;4.78;;;;;;;;;;5009628;28;20045;-51
2021/06/11 02:22:18;;;;;;;4.32;4.03;;;;;;;;;;5009251;28;20386;-54
2021/06/11 02:24:45;;;;;;;3.92;3.78;;;;;;;;;;5008527;28;20046;-52
2021/06/11 02:27:14;;;;;;;5.07;4.75;;;;;;;;;;5009731;28;20576;-53
2021/06/11 02:29:40;;;;;;;4.97;4.85;;;;;;;;;;5006877;28;20438;-54
2021/06/11 02:32:07;;;;;;;4.68;4.57;;;;;;;;;;5016776;28;20548;-53
2021/06/11 02:34:34;;;;;;;7.22;4.45;;;;;;;;;;5008740;28;20053;-52
2021/06/11 02:37:01;;;;;;;4.18;3.70;;;;;;;;;;5008011;28;20042;-52
2021/06/11 02:39:28;;;;;;;4.50;4.30;;;;;;;;;;5010084;28;20038;-52
2021/06/11 02:42:00;;;;;;;4.50;4.30;;;;;;;;;;5007727;28;20045;-53
2021/06/11 02:44:29;;;;;;;4.25;4.15;;;;;;;;;;5008646;28;20038;-54
2021/06/11 02:47:03;;;;;;;6.85;6.15;;;;;;;;;;5007572;28;20061;-53
2021/06/11 02:49:38;;;;;;;4.45;4.22;;;;;;;;;;5007782;28;20141;-53
2021/06/11 02:52:06;;;;;;;4.38;4.28;;;;;;;;;;5008939;28;20049;-52
2021/06/11 02:54:39;;;;;;;4.28;4.00;;;;;;;;;;5007234;28;20670;-53
2021/06/11 02:57:21;;;;;;;4.77;4.67;;;;;;;;;;5006804;28;20042;-52
2021/06/11 02:59:55;;;;;;;4.40;4.30;;;;;;;;;;5008415;28;20696;-52
2021/06/11 03:02:35;;;;;;;4.80;4.60;;;;;;;;;;5007999;28;20100;-54
2021/06/11 03:05:02;;;;;;;4.25;4.15;;;;;;;;;;4991828;28;20045;-53
2021/06/11 03:07:31;;;;;;;4.35;4.00;;;;;;;;;;5010405;28;20046;-53
2021/06/11 03:10:00;;;;;;;3.65;3.45;;;;;;;;;;5010182;28;20107;-53
2021/06/11 03:12:28;;;;;;;3.50;3.40;;;;;;;;;;5012878;28;20038;-52
2021/06/11 03:14:55;;;;;;;3.65;3.60;;;;;;;;;;5012529;28;20037;-51
2021/06/11 03:17:28;;;;;;;4.47;4.32;;;;;;;;;;5010952;28;20034;-54
2021/06/11 03:19:57;;;;;;;4.38;4.13;;;;;;;;;;5012265;28;20470;-51
2021/06/11 03:22:29;;;;;;;5.03;4.82;;;;;;;;;;5010322;28;20038;-51
2021/06/11 03:25:03;;;;;;;5.07;4.83;;;;;;;;;;5013872;28;20046;-54
2021/06/11 03:27:51;;;;;;;5.43;5.05;;;;;;;;;;5011786;28;20300;-51
2021/06/11 03:30:21;;;;;;;4.95;4.65;;;;;;;;;;4998386;28;20052;-52
2021/06/11 03:32:50;;;;;;;4.20;4.10;;;;;;;;;;5011806;28;20064;-51
2021/06/11 03:35:36;;;;;;;4.30;4.10;;;;;;;;;;5011203;28;20038;-53
2021/06/11 03:38:10;;;;;;;5.13;4.90;;;;;;;;;;5009952;28;20087;-54
2021/06/11 03:40:40;;;;;;;5.03;4.82;;;;;;;;;;5017080;28;20030;-53
2021/06/11 03:43:08;;;;;;;5.30;5.20;;;;;;;;;;5011170;28;20026;-53
2021/06/11 03:45:35;;;;;;;5.50;5.25;;;;;;;;;;5011689;28;20045;-52
2021/06/11 03:48:03;;;;;;;4.65;4.50;;;;;;;;;;5011915;28;20042;-51
2021/06/11 03:50:30;;;;;;;4.60;4.50;;;;;;;;;;5009718;28;20046;-51
2021/06/11 03:53:01;;;;;;;4.88;4.65;;;;;;;;;;5024411;28;20042;-54
2021/06/11 03:55:29;;;;;;;4.75;4.65;;;;;;;;;;5011220;28;20068;-53
2021/06/11 03:58:01;;;;;;;5.00;4.40;;;;;;;;;;5010347;28;20038;-50
2021/06/11 04:00:29;;;;;;;21.90;4.70;;;;;;;;;;5011723;28;20061;-51
2021/06/11 04:02:56;;;;;;;5.30;4.95;;;;;;;;;;5010887;28;20064;-51
2021/06/11 04:05:23;;;;;;;7.38;5.65;;;;;;;;;;5010660;28;20029;-53
2021/06/11 04:07:53;;;;;;;74.45;6.45;;;;;;;;;;5009942;28;20046;-52
2021/06/11 04:10:33;;;;;;;28.55;5.65;;;;;;;;;;5009939;28;20068;-51
2021/06/11 04:13:05;;;;;;;70.72;6.55;;;;;;;;;;5014841;28;20038;-53
2021/06/11 04:15:34;;;;;;;58.72;6.28;;;;;;;;;;5008869;28;20046;-52
2021/06/11 04:18:02;;;;;;;116.57;7.03;;;;;;;;;;5010765;28;20101;-53
2021/06/11 04:20:29;;;;;;;89.25;5.57;;;;;;;;;;5009549;28;20046;-51
2021/06/11 04:22:59;;;;;;;34.00;5.53;;;;;;;;;;5009224;28;20042;-53
2021/06/11 04:25:30;;;;;;;34.05;5.82;;;;;;;;;;5010090;28;20421;-52
2021/06/11 04:27:58;;;;;;;19.98;4.85;;;;;;;;;;5009946;28;20065;-53
2021/06/11 04:30:25;;;;;;;5.70;5.20;;;;;;;;;;5008727;28;20422;-54
2021/06/11 04:32:52;;;;;;;15.95;4.18;;;;;;;;;;5011873;28;20585;-54
2021/06/11 04:35:26;;;;;;;31.00;4.60;;;;;;;;;;5010626;28;20046;-53
2021/06/11 04:37:56;;;;;;;16.00;3.38;;;;;;;;;;5002824;28;20030;-52
2021/06/11 04:40:22;;;;;;;3.50;3.30;;;;;;;;;;5011090;28;20089;-53
2021/06/11 04:42:49;;;;;;;3.58;3.47;;;;;;;;;;5010178;28;20099;-54
2021/06/11 04:45:16;;;;;;;4.00;3.65;;;;;;;;;;5011062;28;20463;-51
2021/06/11 04:47:43;;;;;;;3.45;3.35;;;;;;;;;;5011088;28;20057;-51
2021/06/11 04:50:10;;;;;;;3.95;3.75;;;;;;;;;;5009593;28;20487;-54
2021/06/11 04:52:38;;;;;;;3.55;3.42;;;;;;;;;;5011807;28;20042;-53
2021/06/11 04:55:05;;;;;;;2.67;2.67;;;;;;;;;;5009040;28;20038;-53
2021/06/11 04:57:32;;;;;;;3.83;3.72;;;;;;;;;;5012051;28;20050;-52
2021/06/11 04:59:58;;;;;;;3.97;3.78;;;;;;;;;;5009610;28;20046;-53
2021/06/11 05:02:25;;;;;;;3.78;3.53;;;;;;;;;;5009185;28;20041;-53
2021/06/11 05:04:52;;;;;;;4.15;4.05;;;;;;;;;;5011278;28;20049;-52
2021/06/11 05:07:19;;;;;;;5.30;4.90;;;;;;;;;;5009532;28;20103;-53
2021/06/11 05:09:45;;;;;;;3.63;3.53;;;;;;;;;;5010437;28;20053;-54
2021/06/11 05:12:12;;;;;;;2.90;2.80;;;;;;;;;;5009256;28;20435;-53
2021/06/11 05:14:39;;;;;;;3.47;3.17;;;;;;;;;;5009231;28;20033;-54
2021/06/11 05:17:05;;;;;;;2.00;2.00;;;;;;;;;;5011176;28;20049;-52
2021/06/11 05:19:33;;;;;;;3.30;3.20;;;;;;;;;;5007948;28;20439;-54
2021/06/11 05:21:59;;;;;;;3.58;3.47;;;;;;;;;;5010275;28;20088;-55
2021/06/11 05:24:26;;;;;;;2.83;2.83;;;;;;;;;;5009642;28;20048;-55
2021/06/11 05:26:53;;;;;;;3.10;3.00;;;;;;;;;;5007619;28;20091;-54
2021/06/11 05:29:19;;;;;;;2.72;2.63;;;;;;;;;;5010788;28;20046;-55
2021/06/11 05:31:46;;;;;;;2.85;2.70;;;;;;;;;;5008859;28;20049;-55
2021/06/11 05:34:13;;;;;;;3.60;3.40;;;;;;;;;;5009492;28;20046;-56
2021/06/11 05:36:40;;;;;;;2.78;2.67;;;;;;;;;;5010575;28;20041;-55
2021/06/11 05:39:07;;;;;;;2.83;2.72;;;;;;;;;;5007546;28;20470;-54
2021/06/11 05:41:34;;;;;;;3.50;3.50;;;;;;;;;;5017575;28;20042;-55
2021/06/11 05:44:01;;;;;;;3.47;3.38;;;;;;;;;;5006969;28;20045;-55
2021/06/11 05:46:27;;;;;;;5.38;3.70;;;;;;;;;;5003780;28;20038;-54
2021/06/11 05:48:54;;;;;;;3.75;3.00;;;;;;;;;;5007096;28;20053;-54
2021/06/11 05:51:21;;;;;;;5.57;3.08;;;;;;;;;;5002025;28;20037;-53
2021/06/11 05:53:48;;;;;;;3.92;3.50;;;;;;;;;;5007840;28;20060;-54
2021/06/11 05:56:15;;;;;;;4.93;3.58;;;;;;;;;;5008464;28;20752;-55
2021/06/11 05:58:41;;;;;;;4.00;3.90;;;;;;;;;;5009149;28;20043;-54
2021/06/11 06:01:08;;;;;;;3.25;2.97;;;;;;;;;;5018293;28;20042;-54
2021/06/11 06:03:35;;;;;;;4.15;3.88;;;;;;;;;;5016280;28;20505;-52
2021/06/11 06:06:02;;;;;;;3.38;3.15;;;;;;;;;;5010474;28;20049;-55
2021/06/11 06:08:29;;;;;;;3.28;3.17;;;;;;;;;;5008554;28;20080;-53
2021/06/11 06:10:55;;;;;;;2.47;2.28;;;;;;;;;;5008305;28;20045;-53
2021/06/11 06:13:22;;;;;;;3.33;3.13;;;;;;;;;;5010522;28;20084;-54
2021/06/11 06:15:49;;;;;;;3.22;2.58;;;;;;;;;;5008867;28;20034;-54
2021/06/11 06:18:17;;;;;;;3.03;2.78;;;;;;;;;;5009985;28;20049;-54
2021/06/11 06:20:46;;;;;;;6.35;3.60;;;;;;;;;;5006280;28;20089;-54
2021/06/11 06:23:13;;;;;;;2.72;2.53;;;;;;;;;;5008448;28;20390;-53
2021/06/11 06:25:40;;;;;;;3.55;3.45;;;;;;;;;;5009042;28;20042;-54
2021/06/11 06:28:08;;;;;;;5.18;2.50;;;;;;;;;;5009096;28;20080;-53
2021/06/11 06:30:34;;;;;;;3.38;2.80;;;;;;;;;;5009700;28;20372;-53
2021/06/11 06:33:01;;;;;;;3.40;3.10;;;;;;;;;;5009259;28;20429;-54
2021/06/11 06:35:28;;;;;;;4.78;4.00;;;;;;;;;;5007750;28;20041;-54
2021/06/11 06:37:55;;;;;;;2.38;2.28;;;;;;;;;;5022315;28;20042;-54
2021/06/11 06:40:22;;;;;;;2.85;2.65;;;;;;;;;;5010436;28;20041;-54
2021/06/11 06:42:49;;;;;;;2.95;2.78;;;;;;;;;;5002095;28;20034;-52
2021/06/11 06:45:19;;;;;;;4.10;2.60;;;;;;;;;;5013003;28;20104;-54
2021/06/11 06:47:46;;;;;;;4.32;2.20;;;;;;;;;;5010747;28;20053;-54
2021/06/11 06:50:15;;;;;;;2.40;2.20;;;;;;;;;;5014400;28;20041;-53
2021/06/11 06:52:42;;;;;;;3.20;2.33;;;;;;;;;;5011803;28;20030;-54
2021/06/11 06:55:09;;;;;;;3.22;3.10;;;;;;;;;;5011772;28;20055;-52
2021/06/11 06:57:36;;;;;;;3.65;2.70;;;;;;;;;;5013492;28;20041;-53
2021/06/11 07:00:06;;;;;;;2.85;2.75;;;;;;;;;;5011467;28;20046;-53
2021/06/11 07:02:34;;;;;;;3.03;2.92;;;;;;;;;;5012521;28;20092;-53
2021/06/11 07:05:01;;;;;;;2.60;2.47;;;;;;;;;;5011715;28;20038;-54
2021/06/11 07:07:27;;;;;;;3.40;2.67;;;;;;;;;;5010291;28;20050;-54
2021/06/11 07:09:54;;;;;;;3.35;2.80;;;;;;;;;;5023181;28;20033;-53
2021/06/11 07:12:21;;;;;;;3.05;2.55;;;;;;;;;;5012382;28;20033;-54
2021/06/11 07:14:48;;;;;;;2.47;2.38;;;;;;;;;;5012666;28;20069;-55
2021/06/11 07:17:15;;;;;;;2.60;2.10;;;;;;;;;;5015142;28;20041;-55
2021/06/11 07:19:42;;;;;;;3.63;2.55;;;;;;;;;;5022513;28;20030;-55
2021/06/11 07:22:10;;;;;;;2.65;2.55;;;;;;;;;;5012409;28;20038;-55
2021/06/11 07:24:38;;;;;;;6.65;2.30;;;;;;;;;;5011410;28;20048;-54
2021/06/11 07:27:05;;;;;;;2.95;2.20;;;;;;;;;;5011297;28;20108;-55
2021/06/11 07:29:32;;;;;;;1.70;1.60;;;;;;;;;;5011021;28;20045;-54
2021/06/11 07:31:59;;;;;;;2.83;2.08;;;;;;;;;;5010781;28;20038;-54
2021/06/11 07:34:26;;;;;;;3.25;2.55;;;;;;;;;;5011881;28;20091;-54
2021/06/11 07:36:53;;;;;;;2.10;2.00;;;;;;;;;;5009918;28;20088;-54
2021/06/11 07:39:20;;;;;;;3.28;1.38;;;;;;;;;;5011934;28;20498;-53
2021/06/11 07:41:49;;;;;;;3.05;2.10;;;;;;;;;;5011946;28;20092;-55
2021/06/11 07:44:16;;;;;;;2.97;1.70;;;;;;;;;;5010654;28;20453;-54
2021/06/11 07:46:42;;;;;;;1.75;1.67;;;;;;;;;;5011162;28;20478;-55
2021/06/11 07:49:09;;;;;;;1.77;1.60;;;;;;;;;;5012067;28;20038;-55
2021/06/11 07:51:36;;;;;;;1.30;1.30;;;;;;;;;;5010353;28;20050;-54
2021/06/11 07:54:03;;;;;;;1.60;1.50;;;;;;;;;;5010476;28;20034;-55
2021/06/11 07:56:29;;;;;;;1.55;1.50;;;;;;;;;;5009906;28;20057;-54
2021/06/11 07:58:56;;;;;;;1.40;1.40;;;;;;;;;;5011151;28;20037;-55
2021/06/11 08:01:25;;;;;;;1.60;1.60;;;;;;;;;;5010077;28;20378;-55
2021/06/11 08:03:52;;;;;;;2.80;2.00;;;;;;;;;;5009156;28;20088;-53
2021/06/11 08:06:18;;;;;;;1.70;1.60;;;;;;;;;;5011320;28;20058;-54
2021/06/11 08:08:45;;;;;;;1.42;1.42;;;;;;;;;;5008584;28;20064;-53
2021/06/11 08:11:12;;;;;;;5.75;2.30;;;;;;;;;;5011967;28;20037;-53
2021/06/11 08:13:39;;;;;;;2.03;1.60;;;;;;;;;;5010391;28;20050;-54
2021/06/11 08:16:06;;;;;;;2.85;1.67;;;;;;;;;;5010210;28;20406;-53
2021/06/11 08:18:33;;;;;;;4.22;1.90;;;;;;;;;;5012360;28;20505;-53
2021/06/11 08:21:00;;;;;;;2.50;1.42;;;;;;;;;;5008633;28;20065;-54
2021/06/11 08:23:27;;;;;;;1.60;1.50;;;;;;;;;;5011233;28;20116;-55
2021/06/11 08:25:53;;;;;;;2.05;1.40;;;;;;;;;;5011937;28;20046;-54
2021/06/11 08:28:20;;;;;;;2.08;1.40;;;;;;;;;;5009564;28;20121;-55
2021/06/11 08:30:47;;;;;;;1.23;1.20;;;;;;;;;;5011020;28;20661;-54
2021/06/11 08:33:14;;;;;;;2.08;1.33;;;;;;;;;;5008297;28;20038;-54
2021/06/11 08:35:41;;;;;;;1.25;1.10;;;;;;;;;;5010406;28;20045;-55
2021/06/11 08:38:08;;;;;;;1.23;1.00;;;;;;;;;;5011095;28;20042;-53
2021/06/11 08:40:35;;;;;;;1.25;1.00;;;;;;;;;;5009436;28;20045;-54
2021/06/11 08:43:02;;;;;;;1.00;1.00;;;;;;;;;;5010956;28;20053;-52
2021/06/11 08:45:28;;;;;;;1.10;1.10;;;;;;;;;;5009894;28;20065;-54
2021/06/11 08:47:55;;;;;;;0.80;0.80;;;;;;;;;;5009632;28;20379;-54
2021/06/11 08:50:23;;;;;;;2.13;0.80;;;;;;;;;;5011304;28;20482;-55
2021/06/11 08:52:50;;;;;;;0.80;0.80;;;;;;;;;;5009939;28;20034;-55
2021/06/11 08:55:18;;;;;;;0.85;0.70;;;;;;;;;;5011287;28;20073;-55
2021/06/11 08:57:44;;;;;;;1.73;0.70;;;;;;;;;;5006358;28;20410;-56
2021/06/11 09:00:12;;;;;;;4.43;1.83;;;;;;;;;;5010412;28;20041;-54
2021/06/11 09:03:04;;;;;;;0.80;0.80;;;;;;;;;;5010401;28;20084;-55
2021/06/11 09:05:30;;;;;;;1.02;0.60;;;;;;;;;;5009537;28;20108;-56
2021/06/11 09:08:24;;;;;;;0.95;0.70;;;;;;;;;;5010194;28;20058;-55
2021/06/11 09:10:52;;;;;;;2.05;0.70;;;;;;;;;;5008644;28;20111;-55
2021/06/11 09:13:26;;;;;;;0.70;0.70;;;;;;;;;;5008854;28;20038;-55
2021/06/11 09:16:13;;;;;;;0.70;0.70;;;;;;;;;;5001324;28;20057;-54
2021/06/11 09:18:53;;;;;;;0.60;0.60;;;;;;;;;;5009199;28;20116;-55
2021/06/11 09:21:25;;;;;;;0.50;0.50;;;;;;;;;;5007710;28;20063;-54
2021/06/11 09:24:09;;;;;;;0.60;0.60;;;;;;;;;;5010284;28;20053;-56
2021/06/11 09:26:36;;;;;;;0.60;0.60;;;;;;;;;;5010098;28;20057;-53
2021/06/11 09:29:19;;;;;;;0.80;0.50;;;;;;;;;;5005878;28;20046;-55
2021/06/11 09:31:46;;;;;;;1.10;0.60;;;;;;;;;;5010993;28;20053;-55
2021/06/11 09:34:20;;;;;;;0.60;0.60;;;;;;;;;;5010095;28;20033;-55
2021/06/11 09:37:05;;;;;;;1.00;0.60;;;;;;;;;;5008961;28;20026;-54
2021/06/11 09:39:39;;;;;;;1.48;0.60;;;;;;;;;;5010604;28;20092;-55
2021/06/11 09:42:09;;;;;;;0.60;0.60;;;;;;;;;;5008935;28;20033;-54
2021/06/11 09:44:36;;;;;;;0.60;0.60;;;;;;;;;;5008751;28;20049;-54
2021/06/11 09:47:03;;;;;;;1.27;0.60;;;;;;;;;;5009784;28;20103;-56
2021/06/11 09:49:42;;;;;;;0.60;0.60;;;;;;;;;;5009328;28;20038;-54
2021/06/11 09:52:10;;;;;;;0.63;0.60;;;;;;;;;;5009200;28;20053;-54
2021/06/11 09:54:37;;;;;;;0.60;0.60;;;;;;;;;;5008051;28;20034;-55
2021/06/11 09:57:20;;;;;;;6.80;0.60;;;;;;;;;;5008483;28;20038;-55
2021/06/11 09:59:47;;;;;;;0.40;0.40;;;;;;;;;;5009711;28;20038;-55
2021/06/11 10:02:18;;;;;;;0.40;0.40;;;;;;;;;;5009074;28;20042;-55
2021/06/11 10:04:45;;;;;;;1.40;0.50;;;;;;;;;;4993479;28;20092;-54
2021/06/11 10:07:14;;;;;;;0.95;0.40;;;;;;;;;;5009806;28;20056;-55
2021/06/11 10:09:41;;;;;;;1.20;0.43;;;;;;;;;;5008164;28;20049;-56
2021/06/11 10:12:08;;;;;;;2.40;0.40;;;;;;;;;;5009874;28;20042;-55
2021/06/11 10:14:36;;;;;;;0.40;0.40;;;;;;;;;;5008727;28;20383;-55
2021/06/11 10:17:06;;;;;;;1.25;0.40;;;;;;;;;;5009153;28;20030;-55
2021/06/11 10:19:34;;;;;;;0.40;0.40;;;;;;;;;;5013430;28;20060;-54
2021/06/11 10:22:01;;;;;;;0.50;0.50;;;;;;;;;;5009779;28;20120;-55
2021/06/11 10:24:28;;;;;;;1.15;0.40;;;;;;;;;;5010583;28;20232;-55
2021/06/11 10:26:55;;;;;;;0.47;0.47;;;;;;;;;;5013514;28;20092;-56
2021/06/11 10:29:22;;;;;;;0.50;0.50;;;;;;;;;;5009621;28;20048;-55
2021/06/11 10:31:49;;;;;;;1.48;0.50;;;;;;;;;;5014088;28;20088;-55
2021/06/11 10:34:19;;;;;;;0.40;0.40;;;;;;;;;;5013730;28;20037;-54
2021/06/11 10:36:46;;;;;;;0.43;0.43;;;;;;;;;;5012039;28;20100;-53
2021/06/11 10:39:14;;;;;;;0.68;0.40;;;;;;;;;;5007008;28;20034;-53
2021/06/11 10:41:54;;;;;;;1.65;0.40;;;;;;;;;;5006707;28;20053;-51
2021/06/11 10:44:37;;;;;;;2.28;0.50;;;;;;;;;;5010820;28;20073;-53
2021/06/11 10:47:16;;;;;;;0.50;0.50;;;;;;;;;;5005920;28;20049;-51
2021/06/11 10:49:56;;;;;;;0.70;0.50;;;;;;;;;;5009915;28;20050;-54
2021/06/11 10:52:38;;;;;;;0.50;0.50;;;;;;;;;;5011845;28;20038;-51
2021/06/11 10:55:15;;;;;;;1.95;0.50;;;;;;;;;;5010645;28;20371;-50
2021/06/11 10:57:43;;;;;;;0.45;0.45;;;;;;;;;;5002321;28;20030;-52
2021/06/11 11:00:30;;;;;;;0.50;0.50;;;;;;;;;;5012414;28;20045;-54
2021/06/11 11:02:58;;;;;;;0.50;0.50;;;;;;;;;;4997495;28;20057;-51
2021/06/11 11:05:25;;;;;;;0.50;0.50;;;;;;;;;;5020369;28;20045;-52
2021/06/11 11:07:52;;;;;;;0.50;0.50;;;;;;;;;;5011872;28;20058;-50
2021/06/11 11:10:34;;;;;;;1.20;0.47;;;;;;;;;;5011154;28;20050;-53
2021/06/11 11:13:11;;;;;;;0.73;0.55;;;;;;;;;;5013595;28;20394;-52
2021/06/11 11:15:51;;;;;;;0.50;0.50;;;;;;;;;;5010046;28;20092;-54
2021/06/11 11:18:23;;;;;;;0.73;0.50;;;;;;;;;;5011203;28;20068;-53
2021/06/11 11:20:51;;;;;;;0.50;0.50;;;;;;;;;;5011857;28;20057;-53
2021/06/11 11:23:19;;;;;;;1.10;0.52;;;;;;;;;;5010402;28;20437;-50
2021/06/11 11:25:48;;;;;;;1.65;0.57;;;;;;;;;;5025989;28;20383;-52
2021/06/11 11:28:17;;;;;;;0.50;0.50;;;;;;;;;;5010641;28;20037;-53
2021/06/11 11:30:45;;;;;;;0.98;0.50;;;;;;;;;;5012867;28;20061;-52
2021/06/11 11:33:13;;;;;;;0.50;0.50;;;;;;;;;;5012433;28;20044;-52
2021/06/11 11:35:41;;;;;;;0.45;0.45;;;;;;;;;;5010840;28;20041;-50
2021/06/11 11:38:08;;;;;;;0.50;0.50;;;;;;;;;;5006621;28;20038;-51
2021/06/11 11:40:36;;;;;;;0.50;0.50;;;;;;;;;;5012326;28;20041;-52
2021/06/11 11:43:04;;;;;;;0.47;0.47;;;;;;;;;;5010513;28;20053;-52
2021/06/11 11:45:31;;;;;;;0.50;0.50;;;;;;;;;;5013114;28;20045;-52
2021/06/11 11:47:59;;;;;;;0.50;0.50;;;;;;;;;;5011140;28;20510;-53
2021/06/11 11:50:28;;;;;;;0.50;0.50;;;;;;;;;;5012157;28;20062;-53
2021/06/11 11:52:55;;;;;;;1.17;0.50;;;;;;;;;;5012125;28;20100;-51
2021/06/11 11:55:23;;;;;;;0.50;0.50;;;;;;;;;;5011061;28;20125;-52
2021/06/11 11:57:50;;;;;;;1.23;0.50;;;;;;;;;;5011708;28;20355;-53
2021/06/11 12:00:16;;;;;;;0.50;0.50;;;;;;;;;;5010082;28;20041;-54
2021/06/11 12:02:44;;;;;;;0.50;0.50;;;;;;;;;;5011221;28;20045;-51
2021/06/11 12:05:11;;;;;;;0.40;0.40;;;;;;;;;;5011712;28;20486;-52
2021/06/11 12:07:38;;;;;;;0.50;0.50;;;;;;;;;;5007965;28;20052;-53
2021/06/11 12:10:05;;;;;;;1.27;0.50;;;;;;;;;;5010598;28;20088;-53
2021/06/11 12:12:32;;;;;;;0.50;0.50;;;;;;;;;;5011271;28;20038;-56
2021/06/11 12:14:59;;;;;;;2.58;0.50;;;;;;;;;;5008417;28;20092;-54
2021/06/11 12:17:26;;;;;;;2.92;0.47;;;;;;;;;;5012405;28;20088;-54
2021/06/11 12:19:53;;;;;;;0.85;0.50;;;;;;;;;;5008056;28;20100;-52
2021/06/11 12:22:20;;;;;;;1.42;0.50;;;;;;;;;;5009994;28;20044;-53
2021/06/11 12:24:47;;;;;;;0.60;0.60;;;;;;;;;;5011909;28;20060;-55
2021/06/11 12:27:14;;;;;;;1.33;0.60;;;;;;;;;;5009472;28;20071;-56
2021/06/11 12:29:40;;;;;;;0.50;0.50;;;;;;;;;;5012765;28;20057;-53
2021/06/11 12:32:07;;;;;;;0.50;0.50;;;;;;;;;;5005379;28;20042;-53
2021/06/11 12:34:34;;;;;;;0.60;0.60;;;;;;;;;;5008225;28;20626;-47
2021/06/11 12:37:01;;;;;;;0.60;0.60;;;;;;;;;;5003205;28;20047;-46
2021/06/11 12:39:29;;;;;;;2.38;0.60;;;;;;;;;;5000725;28;20058;-49
2021/06/11 12:41:59;;;;;;;1.15;0.50;;;;;;;;;;5010808;28;20128;-45
2021/06/11 12:44:27;;;;;;;1.40;0.50;;;;;;;;;;5010436;28;20041;-45
2021/06/11 12:46:55;;;;;;;0.50;0.50;;;;;;;;;;5008521;28;20042;-47
2021/06/11 12:49:23;;;;;;;0.52;0.50;;;;;;;;;;5009982;28;20088;-46
2021/06/11 12:51:52;;;;;;;0.50;0.50;;;;;;;;;;5009495;28;20737;-46
2021/06/11 12:54:19;;;;;;;1.25;0.50;;;;;;;;;;5010131;28;20061;-47
2021/06/11 12:56:46;;;;;;;1.23;0.40;;;;;;;;;;5010234;28;20029;-45
2021/06/11 12:59:13;;;;;;;0.50;0.50;;;;;;;;;;5008249;28;20041;-47
2021/06/11 13:01:40;;;;;;;0.50;0.50;;;;;;;;;;5011744;28;20045;-45
2021/06/11 13:04:06;;;;;;;0.40;0.40;;;;;;;;;;5010351;28;20121;-49
2021/06/11 13:06:34;;;;;;;1.20;0.40;;;;;;;;;;5009693;28;20108;-50
2021/06/11 13:09:03;;;;;;;0.50;0.50;;;;;;;;;;5010363;28;20042;-47
2021/06/11 13:11:30;;;;;;;0.40;0.40;;;;;;;;;;5010076;28;20046;-45
2021/06/11 13:13:56;;;;;;;1.95;0.50;;;;;;;;;;5011638;28;20061;-45
2021/06/11 13:16:23;;;;;;;0.40;0.40;;;;;;;;;;5009460;28;20042;-46
2021/06/11 13:18:50;;;;;;;0.30;0.30;;;;;;;;;;5009425;28;20621;-47
2021/06/11 13:21:17;;;;;;;0.63;0.40;;;;;;;;;;5010025;28;20042;-47
2021/06/11 13:23:44;;;;;;;2.05;0.40;;;;;;;;;;5008861;28;20050;-45
2021/06/11 13:26:10;;;;;;;0.40;0.40;;;;;;;;;;5024044;28;20053;-48
2021/06/11 13:28:37;;;;;;;0.77;0.40;;;;;;;;;;5009901;28;20042;-46
2021/06/11 13:31:04;;;;;;;2.15;0.50;;;;;;;;;;5008818;28;20042;-47
2021/06/11 13:33:30;;;;;;;0.40;0.40;;;;;;;;;;5010784;28;20130;-46
2021/06/11 13:35:58;;;;;;;0.47;0.47;;;;;;;;;;5008658;28;20037;-48
2021/06/11 13:38:25;;;;;;;1.55;0.40;;;;;;;;;;5010677;28;20487;-45
2021/06/11 13:40:52;;;;;;;1.17;0.40;;;;;;;;;;5008428;28;20033;-49
2021/06/11 13:43:18;;;;;;;0.40;0.40;;;;;;;;;;5008662;28;20525;-47
2021/06/11 13:45:45;;;;;;;0.40;0.40;;;;;;;;;;5011077;28;20068;-47
2021/06/11 13:48:12;;;;;;;0.47;0.47;;;;;;;;;;5008181;28;20553;-47
2021/06/11 13:50:39;;;;;;;0.40;0.40;;;;;;;;;;5009301;28;20046;-46
2021/06/11 13:53:06;;;;;;;1.17;0.50;;;;;;;;;;5008631;28;20034;-45
2021/06/11 13:55:33;;;;;;;0.77;0.50;;;;;;;;;;5009745;28;20041;-48
2021/06/11 13:58:00;;;;;;;1.95;0.40;;;;;;;;;;5010944;28;20096;-47
2021/06/11 14:00:27;;;;;;;0.45;0.43;;;;;;;;;;5008327;28;20095;-45
2021/06/11 14:02:55;;;;;;;0.50;0.50;;;;;;;;;;5009065;28;20041;-47
2021/06/11 14:05:24;;;;;;;1.25;0.40;;;;;;;;;;5009085;28;20095;-48
2021/06/11 14:07:51;;;;;;;0.40;0.40;;;;;;;;;;5007252;28;20402;-47
2021/06/11 14:10:18;;;;;;;0.63;0.40;;;;;;;;;;5010910;28;20099;-48
2021/06/11 14:12:46;;;;;;;0.40;0.40;;;;;;;;;;5008849;28;20038;-45
2021/06/11 14:15:13;;;;;;;0.40;0.40;;;;;;;;;;5009151;28;20497;-46
2021/06/11 14:17:40;;;;;;;0.40;0.40;;;;;;;;;;5010257;28;20506;-46
2021/06/11 14:20:08;;;;;;;1.30;0.50;;;;;;;;;;5008759;28;20046;-46
2021/06/11 14:22:35;;;;;;;0.40;0.40;;;;;;;;;;5009792;28;20045;-46
2021/06/11 14:25:02;;;;;;;1.20;0.50;;;;;;;;;;5008802;28;20100;-47
2021/06/11 14:27:29;;;;;;;1.05;0.43;;;;;;;;;;5008317;28;20030;-46
2021/06/11 14:29:56;;;;;;;1.15;0.57;;;;;;;;;;5009722;28;20049;-45
2021/06/11 14:32:23;;;;;;;0.50;0.50;;;;;;;;;;5006833;28;20534;-46
2021/06/11 14:34:51;;;;;;;0.50;0.50;;;;;;;;;;5010782;28;20452;-47
2021/06/11 14:37:18;;;;;;;2.50;0.50;;;;;;;;;;5008443;28;20034;-46
2021/06/11 14:39:45;;;;;;;1.17;1.15;;;;;;;;;;5008039;28;20026;-49
2021/06/11 14:42:12;;;;;;;0.50;0.50;;;;;;;;;;5009519;28;20030;-45
2021/06/11 14:44:39;;;;;;;0.50;0.50;;;;;;;;;;5008943;28;20038;-48
2021/06/11 14:47:06;;;;;;;2.25;0.50;;;;;;;;;;5009851;28;20045;-47
2021/06/11 14:49:32;;;;;;;0.65;0.50;;;;;;;;;;5007469;28;20050;-49
2021/06/11 14:52:01;;;;;;;1.27;0.57;;;;;;;;;;5008469;28;20061;-46